sensor_id;sensor_type;location;lat;lon;timestamp;P1;durP1;ratioP1;P2;durP2;ratioP2
18887;SDS011;9576;47.792;9.628;2023-02-28T00:01:39;8.70;;;4.55;;
18887;SDS011;9576;47.792;9.628;2023-02-28T00:04:41;9.52;;;3.47;;
18887;SDS011;9576;47.792;9.628;2023-02-28T00:07:43;7.55;;;4.15;;
18887;SDS011;9576;47.792;9.628;2023-02-28T00:10:45;5.35;;;3.50;;
18887;SDS011;9576;47.792;9.628;2023-02-28T00:13:47;11.68;;;3.95;;
18887;SDS011;9576;47.792;9.628;2023-02-28T00:16:51;11.20;;;4.07;;
18887;SDS011;9576;47.792;9.628;2023-02-28T00:19:53;11.15;;;4.65;;
18887;SDS011;9576;47.792;9.628;2023-02-28T00:22:55;6.15;;;3.63;;
18887;SDS011;9576;47.792;9.628;2023-02-28T00:25:57;8.55;;;4.32;;
18887;SDS011;9576;47.792;9.628;2023-02-28T00:28:59;7.00;;;3.58;;
18887;SDS011;9576;47.792;9.628;2023-02-28T00:32:02;10.52;;;4.75;;
18887;SDS011;9576;47.792;9.628;2023-02-28T00:35:05;14.25;;;5.00;;
18887;SDS011;9576;47.792;9.628;2023-02-28T00:38:08;8.17;;;4.33;;
18887;SDS011;9576;47.792;9.628;2023-02-28T00:41:10;8.27;;;4.18;;
18887;SDS011;9576;47.792;9.628;2023-02-28T00:44:12;13.77;;;3.95;;
18887;SDS011;9576;47.792;9.628;2023-02-28T00:47:15;7.63;;;3.80;;
18887;SDS011;9576;47.792;9.628;2023-02-28T00:50:18;7.15;;;4.10;;
18887;SDS011;9576;47.792;9.628;2023-02-28T00:53:20;10.82;;;3.95;;
18887;SDS011;9576;47.792;9.628;2023-02-28T00:56:22;10.98;;;4.57;;
18887;SDS011;9576;47.792;9.628;2023-02-28T00:59:24;5.88;;;3.40;;
18887;SDS011;9576;47.792;9.628;2023-02-28T01:02:27;11.23;;;4.07;;
18887;SDS011;9576;47.792;9.628;2023-02-28T01:05:29;11.60;;;5.07;;
18887;SDS011;9576;47.792;9.628;2023-02-28T01:08:31;5.35;;;3.22;;
18887;SDS011;9576;47.792;9.628;2023-02-28T01:11:33;5.68;;;3.65;;
18887;SDS011;9576;47.792;9.628;2023-02-28T01:14:36;7.35;;;3.92;;
18887;SDS011;9576;47.792;9.628;2023-02-28T01:17:39;9.20;;;4.72;;
18887;SDS011;9576;47.792;9.628;2023-02-28T01:20:41;5.43;;;3.65;;
18887;SDS011;9576;47.792;9.628;2023-02-28T01:23:43;5.00;;;3.65;;
18887;SDS011;9576;47.792;9.628;2023-02-28T01:26:45;11.75;;;5.25;;
18887;SDS011;9576;47.792;9.628;2023-02-28T01:29:47;10.20;;;4.60;;
18887;SDS011;9576;47.792;9.628;2023-02-28T01:32:50;8.23;;;4.05;;
18887;SDS011;9576;47.792;9.628;2023-02-28T01:35:57;5.65;;;3.65;;
18887;SDS011;9576;47.792;9.628;2023-02-28T01:38:59;3.80;;;2.53;;
18887;SDS011;9576;47.792;9.628;2023-02-28T01:42:01;8.13;;;3.30;;
18887;SDS011;9576;47.792;9.628;2023-02-28T01:45:06;6.18;;;3.55;;
18887;SDS011;9576;47.792;9.628;2023-02-28T01:48:20;6.05;;;3.78;;
18887;SDS011;9576;47.792;9.628;2023-02-28T01:51:26;7.80;;;4.07;;
18887;SDS011;9576;47.792;9.628;2023-02-28T01:54:33;7.28;;;4.15;;
18887;SDS011;9576;47.792;9.628;2023-02-28T01:57:36;7.97;;;3.60;;
18887;SDS011;9576;47.792;9.628;2023-02-28T02:00:42;12.80;;;5.60;;
18887;SDS011;9576;47.792;9.628;2023-02-28T02:03:45;6.93;;;4.30;;
18887;SDS011;9576;47.792;9.628;2023-02-28T02:06:47;6.43;;;3.50;;
18887;SDS011;9576;47.792;9.628;2023-02-28T02:09:49;6.97;;;3.42;;
18887;SDS011;9576;47.792;9.628;2023-02-28T02:12:58;5.03;;;3.15;;
18887;SDS011;9576;47.792;9.628;2023-02-28T02:16:23;6.95;;;3.20;;
18887;SDS011;9576;47.792;9.628;2023-02-28T02:19:51;5.95;;;3.38;;
18887;SDS011;9576;47.792;9.628;2023-02-28T02:27:09;4.18;;;2.50;;
18887;SDS011;9576;47.792;9.628;2023-02-28T02:30:43;7.20;;;3.28;;
18887;SDS011;9576;47.792;9.628;2023-02-28T02:34:10;8.80;;;3.05;;
18887;SDS011;9576;47.792;9.628;2023-02-28T02:37:42;9.20;;;3.70;;
18887;SDS011;9576;47.792;9.628;2023-02-28T02:40:50;5.68;;;3.60;;
18887;SDS011;9576;47.792;9.628;2023-02-28T02:43:58;2.63;;;2.03;;
18887;SDS011;9576;47.792;9.628;2023-02-28T02:47:05;8.40;;;3.70;;
18887;SDS011;9576;47.792;9.628;2023-02-28T02:50:13;7.50;;;3.17;;
18887;SDS011;9576;47.792;9.628;2023-02-28T02:53:21;5.22;;;3.15;;
18887;SDS011;9576;47.792;9.628;2023-02-28T02:56:28;5.88;;;3.42;;
18887;SDS011;9576;47.792;9.628;2023-02-28T02:59:32;7.20;;;3.70;;
18887;SDS011;9576;47.792;9.628;2023-02-28T03:02:36;6.22;;;3.38;;
18887;SDS011;9576;47.792;9.628;2023-02-28T03:05:44;4.95;;;3.42;;
18887;SDS011;9576;47.792;9.628;2023-02-28T03:08:49;3.92;;;2.72;;
18887;SDS011;9576;47.792;9.628;2023-02-28T03:11:51;5.90;;;3.45;;
18887;SDS011;9576;47.792;9.628;2023-02-28T03:14:56;14.70;;;3.95;;
18887;SDS011;9576;47.792;9.628;2023-02-28T03:18:05;6.53;;;3.88;;
18887;SDS011;9576;47.792;9.628;2023-02-28T03:21:15;5.78;;;3.10;;
18887;SDS011;9576;47.792;9.628;2023-02-28T03:24:24;5.35;;;2.80;;
18887;SDS011;9576;47.792;9.628;2023-02-28T03:27:34;10.60;;;3.22;;
18887;SDS011;9576;47.792;9.628;2023-02-28T03:30:42;12.30;;;3.90;;
18887;SDS011;9576;47.792;9.628;2023-02-28T03:33:50;3.00;;;2.35;;
18887;SDS011;9576;47.792;9.628;2023-02-28T03:36:59;10.77;;;4.55;;
18887;SDS011;9576;47.792;9.628;2023-02-28T03:40:05;8.35;;;4.18;;
18887;SDS011;9576;47.792;9.628;2023-02-28T03:43:13;5.95;;;3.70;;
18887;SDS011;9576;47.792;9.628;2023-02-28T03:46:19;9.57;;;4.70;;
18887;SDS011;9576;47.792;9.628;2023-02-28T03:49:26;3.53;;;1.98;;
18887;SDS011;9576;47.792;9.628;2023-02-28T03:52:33;7.70;;;4.30;;
18887;SDS011;9576;47.792;9.628;2023-02-28T03:55:42;4.95;;;3.60;;
18887;SDS011;9576;47.792;9.628;2023-02-28T03:58:47;5.82;;;3.85;;
18887;SDS011;9576;47.792;9.628;2023-02-28T04:01:55;9.75;;;5.03;;
18887;SDS011;9576;47.792;9.628;2023-02-28T04:08:06;5.63;;;3.55;;
18887;SDS011;9576;47.792;9.628;2023-02-28T04:11:12;13.85;;;4.63;;
18887;SDS011;9576;47.792;9.628;2023-02-28T04:14:22;7.00;;;4.00;;
18887;SDS011;9576;47.792;9.628;2023-02-28T04:17:24;4.70;;;2.50;;
18887;SDS011;9576;47.792;9.628;2023-02-28T04:20:27;6.93;;;3.80;;
18887;SDS011;9576;47.792;9.628;2023-02-28T04:23:30;13.90;;;5.53;;
18887;SDS011;9576;47.792;9.628;2023-02-28T04:26:33;7.25;;;3.75;;
18887;SDS011;9576;47.792;9.628;2023-02-28T04:29:35;5.93;;;3.47;;
18887;SDS011;9576;47.792;9.628;2023-02-28T04:32:37;7.45;;;3.78;;
18887;SDS011;9576;47.792;9.628;2023-02-28T04:35:39;8.90;;;4.68;;
18887;SDS011;9576;47.792;9.628;2023-02-28T04:38:43;20.50;;;4.43;;
18887;SDS011;9576;47.792;9.628;2023-02-28T04:44:47;8.73;;;3.95;;
18887;SDS011;9576;47.792;9.628;2023-02-28T04:47:49;8.20;;;4.93;;
18887;SDS011;9576;47.792;9.628;2023-02-28T04:50:51;7.57;;;4.65;;
18887;SDS011;9576;47.792;9.628;2023-02-28T04:53:54;14.23;;;4.35;;
18887;SDS011;9576;47.792;9.628;2023-02-28T04:56:57;8.90;;;5.73;;
18887;SDS011;9576;47.792;9.628;2023-02-28T04:59:58;15.38;;;5.95;;
18887;SDS011;9576;47.792;9.628;2023-02-28T05:03:00;8.45;;;4.65;;
18887;SDS011;9576;47.792;9.628;2023-02-28T05:06:02;6.88;;;4.20;;
18887;SDS011;9576;47.792;9.628;2023-02-28T05:09:07;17.92;;;4.75;;
18887;SDS011;9576;47.792;9.628;2023-02-28T05:12:11;5.75;;;4.10;;
18887;SDS011;9576;47.792;9.628;2023-02-28T05:15:14;11.88;;;5.32;;
18887;SDS011;9576;47.792;9.628;2023-02-28T05:18:17;8.82;;;4.97;;
18887;SDS011;9576;47.792;9.628;2023-02-28T05:21:28;8.18;;;4.75;;
18887;SDS011;9576;47.792;9.628;2023-02-28T05:24:33;12.45;;;4.50;;
18887;SDS011;9576;47.792;9.628;2023-02-28T05:27:35;6.57;;;4.28;;
18887;SDS011;9576;47.792;9.628;2023-02-28T05:30:37;9.07;;;3.90;;
18887;SDS011;9576;47.792;9.628;2023-02-28T05:33:39;2.72;;;1.58;;
18887;SDS011;9576;47.792;9.628;2023-02-28T05:36:41;6.53;;;4.15;;
18887;SDS011;9576;47.792;9.628;2023-02-28T05:39:44;10.90;;;5.40;;
18887;SDS011;9576;47.792;9.628;2023-02-28T05:42:46;9.05;;;5.68;;
18887;SDS011;9576;47.792;9.628;2023-02-28T05:45:48;7.20;;;3.42;;
18887;SDS011;9576;47.792;9.628;2023-02-28T05:48:50;9.25;;;3.17;;
18887;SDS011;9576;47.792;9.628;2023-02-28T05:51:52;9.02;;;3.22;;
18887;SDS011;9576;47.792;9.628;2023-02-28T05:54:55;14.30;;;5.18;;
18887;SDS011;9576;47.792;9.628;2023-02-28T05:57:57;8.30;;;4.75;;
18887;SDS011;9576;47.792;9.628;2023-02-28T06:01:00;8.52;;;4.57;;
18887;SDS011;9576;47.792;9.628;2023-02-28T06:04:20;12.90;;;5.65;;
18887;SDS011;9576;47.792;9.628;2023-02-28T06:07:22;12.95;;;4.55;;
18887;SDS011;9576;47.792;9.628;2023-02-28T06:10:26;11.35;;;5.93;;
18887;SDS011;9576;47.792;9.628;2023-02-28T06:13:27;9.52;;;5.43;;
18887;SDS011;9576;47.792;9.628;2023-02-28T06:16:30;8.32;;;4.85;;
18887;SDS011;9576;47.792;9.628;2023-02-28T06:22:39;8.80;;;4.47;;
18887;SDS011;9576;47.792;9.628;2023-02-28T06:25:45;5.25;;;2.65;;
18887;SDS011;9576;47.792;9.628;2023-02-28T06:28:47;28.83;;;5.88;;
18887;SDS011;9576;47.792;9.628;2023-02-28T06:31:49;13.93;;;6.95;;
18887;SDS011;9576;47.792;9.628;2023-02-28T06:34:51;9.38;;;5.60;;
18887;SDS011;9576;47.792;9.628;2023-02-28T06:37:54;9.50;;;4.35;;
18887;SDS011;9576;47.792;9.628;2023-02-28T06:40:57;9.07;;;5.32;;
18887;SDS011;9576;47.792;9.628;2023-02-28T06:44:01;9.95;;;5.47;;
18887;SDS011;9576;47.792;9.628;2023-02-28T06:47:03;7.40;;;4.22;;
18887;SDS011;9576;47.792;9.628;2023-02-28T06:50:06;13.20;;;5.97;;
18887;SDS011;9576;47.792;9.628;2023-02-28T06:53:09;23.57;;;5.73;;
18887;SDS011;9576;47.792;9.628;2023-02-28T06:56:13;11.15;;;5.15;;
18887;SDS011;9576;47.792;9.628;2023-02-28T06:59:16;11.50;;;5.80;;
18887;SDS011;9576;47.792;9.628;2023-02-28T07:02:18;15.13;;;5.70;;
18887;SDS011;9576;47.792;9.628;2023-02-28T07:05:20;9.00;;;5.32;;
18887;SDS011;9576;47.792;9.628;2023-02-28T07:08:22;12.52;;;6.15;;
18887;SDS011;9576;47.792;9.628;2023-02-28T07:11:26;13.18;;;5.35;;
18887;SDS011;9576;47.792;9.628;2023-02-28T07:14:29;19.05;;;6.88;;
18887;SDS011;9576;47.792;9.628;2023-02-28T07:17:31;11.02;;;6.30;;
18887;SDS011;9576;47.792;9.628;2023-02-28T07:20:33;13.35;;;6.47;;
18887;SDS011;9576;47.792;9.628;2023-02-28T07:23:35;15.50;;;6.57;;
18887;SDS011;9576;47.792;9.628;2023-02-28T07:26:40;13.35;;;6.18;;
18887;SDS011;9576;47.792;9.628;2023-02-28T07:29:42;15.70;;;6.20;;
18887;SDS011;9576;47.792;9.628;2023-02-28T07:32:44;16.35;;;6.50;;
18887;SDS011;9576;47.792;9.628;2023-02-28T07:35:46;12.20;;;6.07;;
18887;SDS011;9576;47.792;9.628;2023-02-28T07:38:49;16.17;;;6.15;;
18887;SDS011;9576;47.792;9.628;2023-02-28T07:41:52;15.25;;;6.22;;
18887;SDS011;9576;47.792;9.628;2023-02-28T07:44:54;12.73;;;6.55;;
18887;SDS011;9576;47.792;9.628;2023-02-28T07:47:56;11.45;;;5.85;;
18887;SDS011;9576;47.792;9.628;2023-02-28T07:50:58;14.75;;;5.93;;
18887;SDS011;9576;47.792;9.628;2023-02-28T07:54:00;17.27;;;7.10;;
18887;SDS011;9576;47.792;9.628;2023-02-28T07:57:04;19.60;;;6.53;;
18887;SDS011;9576;47.792;9.628;2023-02-28T08:00:07;10.98;;;5.65;;
18887;SDS011;9576;47.792;9.628;2023-02-28T08:03:12;14.02;;;6.60;;
18887;SDS011;9576;47.792;9.628;2023-02-28T08:06:15;14.38;;;7.00;;
18887;SDS011;9576;47.792;9.628;2023-02-28T08:09:19;9.48;;;5.85;;
18887;SDS011;9576;47.792;9.628;2023-02-28T08:12:22;11.80;;;5.68;;
18887;SDS011;9576;47.792;9.628;2023-02-28T08:15:24;14.98;;;7.78;;
18887;SDS011;9576;47.792;9.628;2023-02-28T08:18:26;6.97;;;4.30;;
18887;SDS011;9576;47.792;9.628;2023-02-28T08:21:28;10.30;;;5.40;;
18887;SDS011;9576;47.792;9.628;2023-02-28T08:24:30;15.00;;;6.10;;
18887;SDS011;9576;47.792;9.628;2023-02-28T08:27:34;12.40;;;6.93;;
18887;SDS011;9576;47.792;9.628;2023-02-28T08:30:37;11.73;;;6.55;;
18887;SDS011;9576;47.792;9.628;2023-02-28T08:33:41;12.15;;;5.65;;
18887;SDS011;9576;47.792;9.628;2023-02-28T08:36:44;11.53;;;7.13;;
18887;SDS011;9576;47.792;9.628;2023-02-28T08:39:46;15.27;;;5.93;;
18887;SDS011;9576;47.792;9.628;2023-02-28T08:42:49;14.75;;;6.55;;
18887;SDS011;9576;47.792;9.628;2023-02-28T08:45:51;10.68;;;5.55;;
18887;SDS011;9576;47.792;9.628;2023-02-28T08:48:54;13.65;;;6.90;;
18887;SDS011;9576;47.792;9.628;2023-02-28T08:51:59;12.60;;;7.10;;
18887;SDS011;9576;47.792;9.628;2023-02-28T08:55:01;14.48;;;6.88;;
18887;SDS011;9576;47.792;9.628;2023-02-28T08:58:04;15.77;;;7.65;;
18887;SDS011;9576;47.792;9.628;2023-02-28T09:01:09;16.92;;;6.65;;
18887;SDS011;9576;47.792;9.628;2023-02-28T09:04:13;10.70;;;6.38;;
18887;SDS011;9576;47.792;9.628;2023-02-28T09:07:15;11.65;;;5.22;;
18887;SDS011;9576;47.792;9.628;2023-02-28T09:10:17;8.48;;;4.97;;
18887;SDS011;9576;47.792;9.628;2023-02-28T09:13:20;15.95;;;7.30;;
18887;SDS011;9576;47.792;9.628;2023-02-28T09:16:22;12.50;;;5.90;;
18887;SDS011;9576;47.792;9.628;2023-02-28T09:19:24;13.13;;;5.85;;
18887;SDS011;9576;47.792;9.628;2023-02-28T09:22:26;14.50;;;5.82;;
18887;SDS011;9576;47.792;9.628;2023-02-28T09:25:28;17.98;;;7.50;;
18887;SDS011;9576;47.792;9.628;2023-02-28T09:28:31;14.93;;;6.35;;
18887;SDS011;9576;47.792;9.628;2023-02-28T09:31:33;10.43;;;6.00;;
18887;SDS011;9576;47.792;9.628;2023-02-28T09:34:35;11.35;;;5.78;;
18887;SDS011;9576;47.792;9.628;2023-02-28T09:37:39;14.30;;;6.47;;
18887;SDS011;9576;47.792;9.628;2023-02-28T09:40:47;28.55;;;4.80;;
18887;SDS011;9576;47.792;9.628;2023-02-28T09:43:53;15.40;;;7.22;;
18887;SDS011;9576;47.792;9.628;2023-02-28T09:46:59;20.85;;;6.80;;
18887;SDS011;9576;47.792;9.628;2023-02-28T09:50:06;11.50;;;6.07;;
18887;SDS011;9576;47.792;9.628;2023-02-28T09:53:19;10.35;;;4.90;;
18887;SDS011;9576;47.792;9.628;2023-02-28T09:56:28;15.15;;;7.40;;
18887;SDS011;9576;47.792;9.628;2023-02-28T09:59:45;16.80;;;6.80;;
18887;SDS011;9576;47.792;9.628;2023-02-28T10:03:04;10.98;;;5.88;;
18887;SDS011;9576;47.792;9.628;2023-02-28T10:06:38;16.10;;;7.15;;
18887;SDS011;9576;47.792;9.628;2023-02-28T10:09:45;11.73;;;5.85;;
18887;SDS011;9576;47.792;9.628;2023-02-28T10:12:51;12.10;;;6.00;;
18887;SDS011;9576;47.792;9.628;2023-02-28T10:15:58;15.65;;;6.53;;
18887;SDS011;9576;47.792;9.628;2023-02-28T10:19:03;13.68;;;7.18;;
18887;SDS011;9576;47.792;9.628;2023-02-28T10:22:11;13.40;;;7.28;;
18887;SDS011;9576;47.792;9.628;2023-02-28T10:25:18;21.35;;;7.13;;
18887;SDS011;9576;47.792;9.628;2023-02-28T10:28:24;28.80;;;8.75;;
18887;SDS011;9576;47.792;9.628;2023-02-28T10:31:28;16.67;;;8.50;;
18887;SDS011;9576;47.792;9.628;2023-02-28T10:34:31;28.40;;;8.60;;
18887;SDS011;9576;47.792;9.628;2023-02-28T10:37:32;16.13;;;7.78;;
18887;SDS011;9576;47.792;9.628;2023-02-28T10:40:38;14.43;;;7.68;;
18887;SDS011;9576;47.792;9.628;2023-02-28T10:43:40;17.75;;;8.25;;
18887;SDS011;9576;47.792;9.628;2023-02-28T10:46:46;26.10;;;9.13;;
18887;SDS011;9576;47.792;9.628;2023-02-28T10:52:52;17.35;;;8.25;;
18887;SDS011;9576;47.792;9.628;2023-02-28T10:55:56;14.05;;;7.97;;
18887;SDS011;9576;47.792;9.628;2023-02-28T10:58:59;12.53;;;6.33;;
18887;SDS011;9576;47.792;9.628;2023-02-28T11:02:08;13.15;;;7.05;;
18887;SDS011;9576;47.792;9.628;2023-02-28T11:05:33;16.55;;;7.85;;
18887;SDS011;9576;47.792;9.628;2023-02-28T11:08:42;24.60;;;8.20;;
18887;SDS011;9576;47.792;9.628;2023-02-28T11:11:46;20.05;;;8.65;;
18887;SDS011;9576;47.792;9.628;2023-02-28T11:14:50;8.30;;;5.00;;
18887;SDS011;9576;47.792;9.628;2023-02-28T11:20:59;17.83;;;8.05;;
18887;SDS011;9576;47.792;9.628;2023-02-28T11:24:03;18.85;;;9.35;;
18887;SDS011;9576;47.792;9.628;2023-02-28T11:27:24;15.60;;;8.63;;
18887;SDS011;9576;47.792;9.628;2023-02-28T11:30:35;16.25;;;8.27;;
18887;SDS011;9576;47.792;9.628;2023-02-28T11:33:41;20.23;;;8.27;;
18887;SDS011;9576;47.792;9.628;2023-02-28T11:36:45;28.88;;;9.55;;
18887;SDS011;9576;47.792;9.628;2023-02-28T11:39:47;17.58;;;9.20;;
18887;SDS011;9576;47.792;9.628;2023-02-28T11:42:50;18.92;;;7.75;;
18887;SDS011;9576;47.792;9.628;2023-02-28T11:46:05;23.25;;;9.40;;
18887;SDS011;9576;47.792;9.628;2023-02-28T11:49:22;18.40;;;8.65;;
18887;SDS011;9576;47.792;9.628;2023-02-28T11:52:36;21.80;;;9.75;;
18887;SDS011;9576;47.792;9.628;2023-02-28T11:55:45;19.83;;;8.88;;
18887;SDS011;9576;47.792;9.628;2023-02-28T11:58:52;16.70;;;8.95;;
18887;SDS011;9576;47.792;9.628;2023-02-28T12:02:05;22.25;;;9.02;;
18887;SDS011;9576;47.792;9.628;2023-02-28T12:05:25;19.15;;;7.43;;
18887;SDS011;9576;47.792;9.628;2023-02-28T12:08:40;14.02;;;7.13;;
18887;SDS011;9576;47.792;9.628;2023-02-28T12:15:05;24.70;;;9.05;;
18887;SDS011;9576;47.792;9.628;2023-02-28T12:18:26;27.00;;;9.65;;
18887;SDS011;9576;47.792;9.628;2023-02-28T12:21:46;15.07;;;7.43;;
18887;SDS011;9576;47.792;9.628;2023-02-28T12:28:46;19.25;;;9.68;;
18887;SDS011;9576;47.792;9.628;2023-02-28T12:31:52;18.73;;;7.95;;
18887;SDS011;9576;47.792;9.628;2023-02-28T12:34:58;22.27;;;8.88;;
18887;SDS011;9576;47.792;9.628;2023-02-28T12:38:05;14.32;;;7.38;;
18887;SDS011;9576;47.792;9.628;2023-02-28T12:41:14;17.98;;;8.25;;
18887;SDS011;9576;47.792;9.628;2023-02-28T12:44:20;17.13;;;7.97;;
18887;SDS011;9576;47.792;9.628;2023-02-28T12:47:27;20.60;;;9.02;;
18887;SDS011;9576;47.792;9.628;2023-02-28T12:50:29;14.35;;;8.38;;
18887;SDS011;9576;47.792;9.628;2023-02-28T12:53:35;14.18;;;7.20;;
18887;SDS011;9576;47.792;9.628;2023-02-28T12:56:50;16.65;;;8.65;;
18887;SDS011;9576;47.792;9.628;2023-02-28T12:59:56;16.98;;;8.10;;
18887;SDS011;9576;47.792;9.628;2023-02-28T13:03:09;16.30;;;8.82;;
18887;SDS011;9576;47.792;9.628;2023-02-28T13:06:33;21.52;;;9.80;;
18887;SDS011;9576;47.792;9.628;2023-02-28T13:09:52;23.38;;;8.82;;
18887;SDS011;9576;47.792;9.628;2023-02-28T13:12:55;13.80;;;6.30;;
18887;SDS011;9576;47.792;9.628;2023-02-28T13:15:58;18.35;;;9.25;;
18887;SDS011;9576;47.792;9.628;2023-02-28T13:22:16;16.90;;;7.35;;
18887;SDS011;9576;47.792;9.628;2023-02-28T13:28:59;24.48;;;8.68;;
18887;SDS011;9576;47.792;9.628;2023-02-28T13:35:45;20.33;;;9.18;;
18887;SDS011;9576;47.792;9.628;2023-02-28T13:38:48;15.80;;;8.55;;
18887;SDS011;9576;47.792;9.628;2023-02-28T13:41:53;22.20;;;10.60;;
18887;SDS011;9576;47.792;9.628;2023-02-28T13:45:20;56.70;;;20.88;;
18887;SDS011;9576;47.792;9.628;2023-02-28T13:48:26;30.80;;;13.57;;
18887;SDS011;9576;47.792;9.628;2023-02-28T13:51:40;27.52;;;10.25;;
18887;SDS011;9576;47.792;9.628;2023-02-28T13:54:50;20.85;;;9.73;;
18887;SDS011;9576;47.792;9.628;2023-02-28T13:58:24;27.95;;;10.70;;
18887;SDS011;9576;47.792;9.628;2023-02-28T14:01:40;26.08;;;12.45;;
18887;SDS011;9576;47.792;9.628;2023-02-28T14:05:00;29.00;;;13.50;;
18887;SDS011;9576;47.792;9.628;2023-02-28T14:08:07;31.67;;;15.05;;
18887;SDS011;9576;47.792;9.628;2023-02-28T14:11:24;44.80;;;18.70;;
18887;SDS011;9576;47.792;9.628;2023-02-28T14:17:59;19.98;;;10.02;;
18887;SDS011;9576;47.792;9.628;2023-02-28T14:21:08;22.10;;;9.25;;
18887;SDS011;9576;47.792;9.628;2023-02-28T14:24:25;28.92;;;12.90;;
18887;SDS011;9576;47.792;9.628;2023-02-28T14:27:54;29.23;;;11.98;;
18887;SDS011;9576;47.792;9.628;2023-02-28T14:31:07;29.92;;;12.23;;
18887;SDS011;9576;47.792;9.628;2023-02-28T14:34:17;23.15;;;11.38;;
18887;SDS011;9576;47.792;9.628;2023-02-28T14:37:32;22.00;;;11.85;;
18887;SDS011;9576;47.792;9.628;2023-02-28T14:40:37;23.77;;;11.07;;
18887;SDS011;9576;47.792;9.628;2023-02-28T14:43:47;20.93;;;9.73;;
18887;SDS011;9576;47.792;9.628;2023-02-28T14:46:52;28.92;;;11.75;;
18887;SDS011;9576;47.792;9.628;2023-02-28T14:49:56;29.17;;;10.20;;
18887;SDS011;9576;47.792;9.628;2023-02-28T14:52:59;26.52;;;10.88;;
18887;SDS011;9576;47.792;9.628;2023-02-28T14:56:02;20.73;;;9.43;;
18887;SDS011;9576;47.792;9.628;2023-02-28T14:59:05;32.13;;;10.73;;
18887;SDS011;9576;47.792;9.628;2023-02-28T15:02:31;26.77;;;11.23;;
18887;SDS011;9576;47.792;9.628;2023-02-28T15:05:35;20.55;;;8.35;;
18887;SDS011;9576;47.792;9.628;2023-02-28T15:08:37;17.08;;;9.25;;
18887;SDS011;9576;47.792;9.628;2023-02-28T15:11:39;19.55;;;9.48;;
18887;SDS011;9576;47.792;9.628;2023-02-28T15:14:42;36.83;;;12.35;;
18887;SDS011;9576;47.792;9.628;2023-02-28T15:17:48;24.25;;;11.07;;
18887;SDS011;9576;47.792;9.628;2023-02-28T15:20:53;20.45;;;10.48;;
18887;SDS011;9576;47.792;9.628;2023-02-28T15:23:56;25.58;;;11.68;;
18887;SDS011;9576;47.792;9.628;2023-02-28T15:27:04;25.73;;;10.38;;
18887;SDS011;9576;47.792;9.628;2023-02-28T15:30:15;23.50;;;10.07;;
18887;SDS011;9576;47.792;9.628;2023-02-28T15:33:22;26.17;;;10.18;;
18887;SDS011;9576;47.792;9.628;2023-02-28T15:36:25;19.85;;;8.50;;
18887;SDS011;9576;47.792;9.628;2023-02-28T15:39:31;26.75;;;12.38;;
18887;SDS011;9576;47.792;9.628;2023-02-28T15:42:57;29.50;;;12.15;;
18887;SDS011;9576;47.792;9.628;2023-02-28T15:46:14;24.92;;;12.88;;
18887;SDS011;9576;47.792;9.628;2023-02-28T15:49:19;21.70;;;11.13;;
18887;SDS011;9576;47.792;9.628;2023-02-28T15:52:24;24.23;;;10.73;;
18887;SDS011;9576;47.792;9.628;2023-02-28T15:55:31;21.70;;;10.55;;
18887;SDS011;9576;47.792;9.628;2023-02-28T15:58:34;17.02;;;9.27;;
18887;SDS011;9576;47.792;9.628;2023-02-28T16:01:37;20.27;;;10.85;;
18887;SDS011;9576;47.792;9.628;2023-02-28T16:08:13;30.52;;;12.98;;
18887;SDS011;9576;47.792;9.628;2023-02-28T16:11:16;31.42;;;12.85;;
18887;SDS011;9576;47.792;9.628;2023-02-28T16:14:18;26.13;;;11.48;;
18887;SDS011;9576;47.792;9.628;2023-02-28T16:17:23;27.83;;;10.77;;
18887;SDS011;9576;47.792;9.628;2023-02-28T16:20:27;30.45;;;10.80;;
18887;SDS011;9576;47.792;9.628;2023-02-28T16:23:32;24.85;;;11.65;;
18887;SDS011;9576;47.792;9.628;2023-02-28T16:26:34;36.25;;;10.95;;
18887;SDS011;9576;47.792;9.628;2023-02-28T16:32:41;27.58;;;10.55;;
18887;SDS011;9576;47.792;9.628;2023-02-28T16:35:43;21.73;;;10.60;;
18887;SDS011;9576;47.792;9.628;2023-02-28T16:38:47;23.40;;;11.30;;
18887;SDS011;9576;47.792;9.628;2023-02-28T16:41:49;18.48;;;8.82;;
18887;SDS011;9576;47.792;9.628;2023-02-28T16:44:52;21.15;;;9.50;;
18887;SDS011;9576;47.792;9.628;2023-02-28T16:47:55;28.67;;;12.15;;
18887;SDS011;9576;47.792;9.628;2023-02-28T16:50:57;25.63;;;10.57;;
18887;SDS011;9576;47.792;9.628;2023-02-28T16:54:00;22.80;;;10.05;;
18887;SDS011;9576;47.792;9.628;2023-02-28T16:57:02;23.40;;;10.68;;
18887;SDS011;9576;47.792;9.628;2023-02-28T17:00:06;23.60;;;9.90;;
18887;SDS011;9576;47.792;9.628;2023-02-28T17:03:18;23.15;;;11.05;;
18887;SDS011;9576;47.792;9.628;2023-02-28T17:06:24;24.45;;;12.07;;
18887;SDS011;9576;47.792;9.628;2023-02-28T17:09:29;27.15;;;12.80;;
18887;SDS011;9576;47.792;9.628;2023-02-28T17:12:31;24.77;;;11.32;;
18887;SDS011;9576;47.792;9.628;2023-02-28T17:15:32;26.58;;;10.88;;
18887;SDS011;9576;47.792;9.628;2023-02-28T17:18:35;29.13;;;12.88;;
18887;SDS011;9576;47.792;9.628;2023-02-28T17:21:39;22.80;;;10.07;;
18887;SDS011;9576;47.792;9.628;2023-02-28T17:24:44;24.85;;;12.32;;
18887;SDS011;9576;47.792;9.628;2023-02-28T17:27:46;23.67;;;11.57;;
18887;SDS011;9576;47.792;9.628;2023-02-28T17:30:49;26.42;;;11.10;;
18887;SDS011;9576;47.792;9.628;2023-02-28T17:33:50;30.65;;;13.50;;
18887;SDS011;9576;47.792;9.628;2023-02-28T17:36:53;27.77;;;11.85;;
18887;SDS011;9576;47.792;9.628;2023-02-28T17:39:56;26.02;;;11.65;;
18887;SDS011;9576;47.792;9.628;2023-02-28T17:42:58;31.77;;;12.05;;
18887;SDS011;9576;47.792;9.628;2023-02-28T17:46:00;26.58;;;11.73;;
18887;SDS011;9576;47.792;9.628;2023-02-28T17:49:02;32.58;;;12.88;;
18887;SDS011;9576;47.792;9.628;2023-02-28T17:52:04;24.45;;;11.05;;
18887;SDS011;9576;47.792;9.628;2023-02-28T17:55:08;27.13;;;13.35;;
18887;SDS011;9576;47.792;9.628;2023-02-28T17:58:11;31.17;;;12.32;;
18887;SDS011;9576;47.792;9.628;2023-02-28T18:01:13;25.45;;;13.00;;
18887;SDS011;9576;47.792;9.628;2023-02-28T18:04:15;28.10;;;12.27;;
18887;SDS011;9576;47.792;9.628;2023-02-28T18:07:17;31.42;;;13.75;;
18887;SDS011;9576;47.792;9.628;2023-02-28T18:10:23;29.33;;;13.65;;
18887;SDS011;9576;47.792;9.628;2023-02-28T18:13:24;32.10;;;14.23;;
18887;SDS011;9576;47.792;9.628;2023-02-28T18:16:27;39.22;;;15.27;;
18887;SDS011;9576;47.792;9.628;2023-02-28T18:19:29;43.28;;;16.48;;
18887;SDS011;9576;47.792;9.628;2023-02-28T18:22:31;37.30;;;15.13;;
18887;SDS011;9576;47.792;9.628;2023-02-28T18:25:35;35.42;;;15.55;;
18887;SDS011;9576;47.792;9.628;2023-02-28T18:28:37;39.67;;;15.85;;
18887;SDS011;9576;47.792;9.628;2023-02-28T18:31:41;42.75;;;18.38;;
18887;SDS011;9576;47.792;9.628;2023-02-28T18:34:43;48.80;;;17.08;;
18887;SDS011;9576;47.792;9.628;2023-02-28T18:37:45;48.20;;;15.52;;
18887;SDS011;9576;47.792;9.628;2023-02-28T18:40:51;53.03;;;17.30;;
18887;SDS011;9576;47.792;9.628;2023-02-28T18:43:55;50.20;;;17.27;;
18887;SDS011;9576;47.792;9.628;2023-02-28T18:46:57;40.72;;;16.85;;
18887;SDS011;9576;47.792;9.628;2023-02-28T18:49:59;39.15;;;16.80;;
18887;SDS011;9576;47.792;9.628;2023-02-28T18:53:01;37.38;;;17.60;;
18887;SDS011;9576;47.792;9.628;2023-02-28T18:56:05;27.98;;;13.23;;
18887;SDS011;9576;47.792;9.628;2023-02-28T18:59:07;39.85;;;16.05;;
18887;SDS011;9576;47.792;9.628;2023-02-28T19:02:10;33.88;;;15.20;;
18887;SDS011;9576;47.792;9.628;2023-02-28T19:05:12;36.17;;;14.60;;
18887;SDS011;9576;47.792;9.628;2023-02-28T19:08:13;39.03;;;16.13;;
18887;SDS011;9576;47.792;9.628;2023-02-28T19:11:17;44.63;;;16.77;;
18887;SDS011;9576;47.792;9.628;2023-02-28T19:14:19;39.75;;;17.70;;
18887;SDS011;9576;47.792;9.628;2023-02-28T19:17:21;37.35;;;16.00;;
18887;SDS011;9576;47.792;9.628;2023-02-28T19:20:23;43.22;;;16.67;;
18887;SDS011;9576;47.792;9.628;2023-02-28T19:23:25;40.42;;;17.52;;
18887;SDS011;9576;47.792;9.628;2023-02-28T19:26:29;36.00;;;16.95;;